createdAt,value
2022-09-28T00:01:25.542Z,12.40
2022-09-28T00:03:58.102Z,12.40
2022-09-28T00:06:30.274Z,12.40
2022-09-28T00:09:00.404Z,12.50
2022-09-28T00:11:28.436Z,12.50
2022-09-28T00:14:01.800Z,12.50
2022-09-28T00:16:32.829Z,12.50
2022-09-28T00:19:00.695Z,12.50
2022-09-28T00:21:31.847Z,12.50
2022-09-28T00:24:17.136Z,12.50
2022-09-28T00:26:56.841Z,12.50
2022-09-28T00:29:31.678Z,12.50
2022-09-28T00:32:09.615Z,12.50
2022-09-28T00:34:45.720Z,12.50
2022-09-28T00:37:14.501Z,12.50
2022-09-28T00:39:41.693Z,12.50
2022-09-28T00:42:20.913Z,12.50
2022-09-28T00:44:51.293Z,12.50
2022-09-28T00:47:26.931Z,12.50
2022-09-28T00:50:11.620Z,12.50
2022-09-28T00:52:44.807Z,12.50
2022-09-28T00:55:21.835Z,12.50
2022-09-28T00:57:58.413Z,12.50
2022-09-28T01:00:25.666Z,12.50
2022-09-28T01:02:52.718Z,12.50
2022-09-28T01:05:21.974Z,12.50
2022-09-28T01:07:49.338Z,12.50
2022-09-28T01:10:17.195Z,12.50
2022-09-28T01:12:44.103Z,12.50
2022-09-28T01:15:11.616Z,12.60
2022-09-28T01:17:57.890Z,12.50
2022-09-28T01:20:49.252Z,12.50
2022-09-28T01:23:51.122Z,12.50
2022-09-28T01:26:25.213Z,12.50
2022-09-28T01:29:17.205Z,12.50
2022-09-28T01:31:52.847Z,12.50
2022-09-28T01:34:30.895Z,12.50
2022-09-28T01:37:07.331Z,12.50
2022-09-28T01:39:41.171Z,12.50
2022-09-28T01:42:24.491Z,12.50
2022-09-28T01:44:57.902Z,12.50
2022-09-28T01:47:31.185Z,12.50
2022-09-28T01:50:12.880Z,12.50
2022-09-28T01:53:11.941Z,12.50
2022-09-28T01:55:57.713Z,12.50
2022-09-28T01:58:40.201Z,12.50
2022-09-28T02:01:36.948Z,12.40
2022-09-28T02:04:20.034Z,12.40
2022-09-28T02:06:58.608Z,12.40
2022-09-28T02:09:39.001Z,12.40
2022-09-28T02:12:20.109Z,12.40
2022-09-28T02:14:54.262Z,12.40
2022-09-28T02:17:21.515Z,12.40
2022-09-28T02:19:48.831Z,12.40
2022-09-28T02:22:37.285Z,12.40
2022-09-28T02:25:42.841Z,12.40
2022-09-28T02:28:13.480Z,12.40
2022-09-28T02:30:44.478Z,12.30
2022-09-28T02:33:42.544Z,12.30
2022-09-28T02:36:10.154Z,12.30
2022-09-28T02:38:39.155Z,12.30
2022-09-28T02:41:39.618Z,12.30
2022-09-28T02:44:49.459Z,12.30
2022-09-28T02:47:34.104Z,12.30
2022-09-28T02:50:39.750Z,12.30
2022-09-28T02:53:43.481Z,12.30
2022-09-28T02:56:30.791Z,12.20
2022-09-28T02:59:31.229Z,12.20
2022-09-28T03:02:59.750Z,12.20
2022-09-28T03:05:55.626Z,12.20
2022-09-28T03:08:46.552Z,12.20
2022-09-28T03:11:36.333Z,12.20
2022-09-28T03:14:05.037Z,12.20
2022-09-28T03:16:46.145Z,12.20
2022-09-28T03:19:14.526Z,12.20
2022-09-28T03:21:41.932Z,12.20
2022-09-28T03:24:11.058Z,12.20
2022-09-28T03:26:41.399Z,12.20
2022-09-28T03:29:08.538Z,12.20
2022-09-28T03:31:36.070Z,12.20
2022-09-28T03:34:03.235Z,12.20
2022-09-28T03:36:30.785Z,12.20
2022-09-28T03:38:59.406Z,12.20
2022-09-28T03:41:29.791Z,12.30
2022-09-28T03:43:56.828Z,12.30
2022-09-28T03:46:25.872Z,12.30
2022-09-28T03:48:58.732Z,12.30
2022-09-28T03:51:26.183Z,12.30
2022-09-28T03:53:53.776Z,12.30
2022-09-28T03:56:21.365Z,12.30
2022-09-28T03:58:48.335Z,12.30
2022-09-28T04:01:17.672Z,12.30
2022-09-28T04:03:47.537Z,12.30
2022-09-28T04:06:15.191Z,12.30
2022-09-28T04:08:43.212Z,12.30
2022-09-28T04:11:10.298Z,12.30
2022-09-28T04:13:37.358Z,12.30
2022-09-28T04:16:06.574Z,12.20
2022-09-28T04:18:35.186Z,12.20
2022-09-28T04:21:33.936Z,12.20
2022-09-28T04:24:06.949Z,12.20
2022-09-28T04:26:33.799Z,12.20
2022-09-28T04:29:15.948Z,12.20
2022-09-28T04:31:53.240Z,12.20
2022-09-28T04:34:23.704Z,12.20
2022-09-28T04:36:51.110Z,12.20
2022-09-28T04:39:19.485Z,12.20
2022-09-28T04:41:53.071Z,12.20
2022-09-28T04:44:20.075Z,12.20
2022-09-28T04:46:48.476Z,12.20
2022-09-28T04:49:30.547Z,12.20
2022-09-28T04:52:07.299Z,12.20
2022-09-28T04:54:35.512Z,12.20
2022-09-28T04:57:03.647Z,12.20
2022-09-28T04:59:30.761Z,12.20
2022-09-28T05:01:58.708Z,12.20
2022-09-28T05:04:56.408Z,12.20
2022-09-28T05:07:49.426Z,12.10
2022-09-28T05:10:18.599Z,12.10
2022-09-28T05:12:45.486Z,12.10
2022-09-28T05:15:12.366Z,12.10
2022-09-28T05:17:39.355Z,12.10
2022-09-28T05:20:10.328Z,12.10
2022-09-28T05:22:37.215Z,12.10
2022-09-28T05:25:05.933Z,12.10
2022-09-28T05:27:44.128Z,12.10
2022-09-28T05:30:24.887Z,12.10
2022-09-28T05:33:10.338Z,12.10
2022-09-28T05:35:52.403Z,12.10
2022-09-28T05:38:21.181Z,12.10
2022-09-28T05:40:48.245Z,12.10
2022-09-28T05:43:15.336Z,12.10
2022-09-28T05:45:42.233Z,12.10
2022-09-28T05:48:09.261Z,12.10
2022-09-28T05:50:36.392Z,12.10
2022-09-28T05:53:10.099Z,12.10
2022-09-28T05:55:39.769Z,12.10
2022-09-28T05:58:07.963Z,12.10
2022-09-28T06:00:36.558Z,12.10
2022-09-28T06:03:09.412Z,12.10
2022-09-28T06:05:39.221Z,12.10
2022-09-28T06:08:10.163Z,12.10
2022-09-28T06:10:37.869Z,12.10
2022-09-28T06:13:06.475Z,12.10
2022-09-28T06:15:36.502Z,12.10
2022-09-28T06:18:07.874Z,12.20
2022-09-28T06:20:54.838Z,12.20
2022-09-28T06:23:30.957Z,12.10
2022-09-28T06:25:59.977Z,12.10
2022-09-28T06:28:26.909Z,12.20
2022-09-28T06:30:54.243Z,12.20
2022-09-28T06:33:21.952Z,12.20
2022-09-28T06:35:48.936Z,12.20
2022-09-28T06:38:16.283Z,12.20
2022-09-28T06:40:43.501Z,12.20
2022-09-28T06:43:15.247Z,12.20
2022-09-28T06:46:02.505Z,12.20
2022-09-28T06:48:48.062Z,12.20
2022-09-28T06:51:19.758Z,12.30
2022-09-28T06:53:57.697Z,12.30
2022-09-28T06:56:43.151Z,12.30
2022-09-28T06:59:10.974Z,12.30
2022-09-28T07:01:38.685Z,12.40
2022-09-28T07:04:43.273Z,12.40
2022-09-28T07:07:32.006Z,12.40
2022-09-28T07:10:24.044Z,12.50
2022-09-28T07:16:15.436Z,12.50
2022-09-28T07:18:42.482Z,12.60
2022-09-28T07:21:19.010Z,12.60
2022-09-28T07:23:53.712Z,12.70
2022-09-28T07:26:25.577Z,12.80
2022-09-28T07:29:06.017Z,12.80
2022-09-28T07:31:59.669Z,12.90
2022-09-28T07:34:58.162Z,12.90
2022-09-28T07:37:46.399Z,12.90
2022-09-28T07:40:32.227Z,13.00
2022-09-28T07:43:08.276Z,13.00
2022-09-28T07:45:36.515Z,13.00
2022-09-28T07:48:04.635Z,13.00
2022-09-28T07:50:54.987Z,13.00
2022-09-28T07:53:48.098Z,13.00
2022-09-28T07:56:27.400Z,13.00
2022-09-28T07:59:17.687Z,13.00
2022-09-28T08:02:04.410Z,13.00
2022-09-28T08:04:31.533Z,13.10
2022-09-28T08:06:59.636Z,13.10
2022-09-28T08:09:26.762Z,13.10
2022-09-28T08:12:22.495Z,13.10
2022-09-28T08:15:12.551Z,13.10
2022-09-28T08:18:11.850Z,13.20
2022-09-28T08:20:57.289Z,13.20
2022-09-28T08:23:25.626Z,13.20
2022-09-28T08:25:54.182Z,13.30
2022-09-28T08:28:24.200Z,13.30
2022-09-28T08:30:54.337Z,13.30
2022-09-28T08:33:54.269Z,13.40
2022-09-28T08:36:47.250Z,13.40
2022-09-28T08:39:37.152Z,13.40
2022-09-28T08:42:41.970Z,13.50
2022-09-28T08:45:44.968Z,13.50
2022-09-28T08:49:20.540Z,13.50
2022-09-28T08:52:23.311Z,13.60
2022-09-28T08:55:19.065Z,13.60
2022-09-28T08:57:56.007Z,13.60
2022-09-28T09:00:49.915Z,13.70
2022-09-28T09:03:35.797Z,13.70
2022-09-28T09:07:14.098Z,13.80
2022-09-28T09:09:53.906Z,13.90
2022-09-28T09:12:26.469Z,14.00
2022-09-28T09:15:32.859Z,14.00
2022-09-28T09:18:20.019Z,14.10
2022-09-28T09:21:39.508Z,14.10
2022-09-28T09:24:27.257Z,14.20
2022-09-28T09:27:18.041Z,14.30
2022-09-28T09:30:09.363Z,14.30
2022-09-28T09:33:24.968Z,14.30
2022-09-28T09:37:08.002Z,14.40
2022-09-28T09:40:17.846Z,14.40
2022-09-28T09:43:36.820Z,14.40
2022-09-28T09:46:57.646Z,14.50
2022-09-28T09:49:48.150Z,14.60
2022-09-28T09:52:44.498Z,14.60
2022-09-28T09:55:19.207Z,14.70
2022-09-28T09:58:03.452Z,14.80
2022-09-28T10:00:35.264Z,14.80
2022-09-28T10:03:39.543Z,14.80
2022-09-28T10:06:28.150Z,14.80
2022-09-28T10:09:31.111Z,14.80
2022-09-28T10:12:20.467Z,14.80
2022-09-28T10:14:47.676Z,14.80
2022-09-28T10:17:20.050Z,14.80
2022-09-28T10:20:07.366Z,14.70
2022-09-28T10:22:56.055Z,14.70
2022-09-28T10:25:24.182Z,14.70
2022-09-28T10:27:52.488Z,14.80
2022-09-28T10:30:23.724Z,14.80
2022-09-28T10:32:58.875Z,14.80
2022-09-28T10:35:41.959Z,14.80
2022-09-28T10:38:18.554Z,14.80
2022-09-28T10:40:57.778Z,14.80
2022-09-28T10:44:06.691Z,14.80
2022-09-28T10:47:02.018Z,14.80
2022-09-28T10:49:47.069Z,14.80
2022-09-28T10:52:40.267Z,14.80
2022-09-28T10:55:32.901Z,14.80
2022-09-28T10:58:01.122Z,14.80
2022-09-28T11:00:44.875Z,14.70
2022-09-28T11:03:28.824Z,14.70
2022-09-28T11:06:08.673Z,14.70
2022-09-28T11:08:42.559Z,14.70
2022-09-28T11:11:16.883Z,14.70
2022-09-28T11:14:03.735Z,14.80
2022-09-28T11:16:36.543Z,14.80
2022-09-28T11:19:31.804Z,14.80
2022-09-28T11:21:58.836Z,14.90
2022-09-28T11:24:36.219Z,15.00
2022-09-28T11:27:04.531Z,15.00
2022-09-28T11:29:43.193Z,15.10
2022-09-28T11:32:26.223Z,15.10
2022-09-28T11:35:36.652Z,15.20
2022-09-28T11:38:56.957Z,15.20
2022-09-28T11:42:16.512Z,15.30
2022-09-28T11:44:49.435Z,15.30
2022-09-28T11:47:51.304Z,15.30
2022-09-28T11:50:44.623Z,15.30
2022-09-28T11:53:15.143Z,15.40
2022-09-28T11:55:55.802Z,15.50
2022-09-28T11:58:25.073Z,15.50
2022-09-28T12:01:19.093Z,15.60
2022-09-28T12:04:43.972Z,15.60
2022-09-28T12:07:38.230Z,15.70
2022-09-28T12:10:21.364Z,15.70
2022-09-28T12:13:05.705Z,15.70
2022-09-28T12:21:51.872Z,15.70
2022-09-28T12:24:31.087Z,15.70
2022-09-28T12:27:04.520Z,15.80
2022-09-28T12:29:49.849Z,15.80
2022-09-28T12:32:38.237Z,15.80
2022-09-28T12:36:11.603Z,15.80
2022-09-28T12:39:30.686Z,15.80
2022-09-28T12:42:29.001Z,15.90
2022-09-28T12:45:38.775Z,15.90
2022-09-28T12:48:43.294Z,15.90
2022-09-28T12:51:21.984Z,15.90
2022-09-28T12:54:42.295Z,15.90
2022-09-28T12:58:06.409Z,15.90
2022-09-28T13:00:55.099Z,15.90
2022-09-28T13:03:31.135Z,16.00
2022-09-28T13:06:22.564Z,16.00
2022-09-28T13:08:58.218Z,16.00
2022-09-28T13:11:47.476Z,16.00
2022-09-28T13:14:20.421Z,16.10
2022-09-28T13:17:18.016Z,16.10
2022-09-28T13:20:17.498Z,16.10
2022-09-28T13:23:25.601Z,16.00
2022-09-28T13:26:20.383Z,16.10
2022-09-28T13:28:51.259Z,16.10
2022-09-28T13:31:32.472Z,16.10
2022-09-28T13:34:03.647Z,16.10
2022-09-28T13:36:30.507Z,16.20
2022-09-28T13:39:01.576Z,16.20
2022-09-28T13:41:50.560Z,16.20
2022-09-28T13:44:41.891Z,16.20
2022-09-28T13:47:25.520Z,16.20
2022-09-28T13:50:22.823Z,16.20
2022-09-28T13:53:16.064Z,16.30
2022-09-28T13:56:49.373Z,16.30
2022-09-28T13:59:29.681Z,16.40
2022-09-28T14:02:41.091Z,16.30
2022-09-28T14:05:23.368Z,16.40
2022-09-28T14:08:23.375Z,16.40
2022-09-28T14:10:56.975Z,16.40
2022-09-28T14:13:44.894Z,16.30
2022-09-28T14:16:17.851Z,16.30
2022-09-28T14:18:56.721Z,16.30
2022-09-28T14:22:13.348Z,16.20
2022-09-28T14:24:58.361Z,16.30
2022-09-28T14:28:02.839Z,16.20
2022-09-28T14:30:41.959Z,16.20
2022-09-28T14:33:21.022Z,16.20
2022-09-28T14:36:07.725Z,16.20
2022-09-28T14:39:08.239Z,16.20
2022-09-28T14:41:40.958Z,16.20
2022-09-28T14:44:18.654Z,16.30
2022-09-28T14:46:47.791Z,16.30
2022-09-28T14:49:17.620Z,16.30
2022-09-28T14:52:02.332Z,16.30
2022-09-28T14:54:59.143Z,16.30
2022-09-28T14:57:31.098Z,16.40
2022-09-28T14:59:59.697Z,16.40
2022-09-28T15:02:38.516Z,16.40
2022-09-28T15:05:27.507Z,16.40
2022-09-28T15:07:56.023Z,16.40
2022-09-28T15:10:39.647Z,16.40
2022-09-28T15:13:24.860Z,16.40
2022-09-28T15:16:09.866Z,16.40
2022-09-28T15:19:06.462Z,16.40
2022-09-28T15:21:40.828Z,16.30
2022-09-28T15:24:32.386Z,16.30
2022-09-28T15:27:15.346Z,16.30
2022-09-28T15:30:03.075Z,16.20
2022-09-28T15:32:32.025Z,16.20
2022-09-28T15:35:20.460Z,16.20
2022-09-28T15:37:51.868Z,16.10
2022-09-28T15:40:25.369Z,16.10
2022-09-28T15:42:55.896Z,16.10
2022-09-28T15:45:38.360Z,16.00
2022-09-28T15:48:31.016Z,16.00
2022-09-28T15:51:10.900Z,16.00
2022-09-28T15:54:11.519Z,16.00
2022-09-28T15:57:01.552Z,15.90
2022-09-28T15:59:39.556Z,15.90
2022-09-28T16:02:36.073Z,15.80
2022-09-28T16:05:05.077Z,15.80
2022-09-28T16:07:38.571Z,15.70
2022-09-28T16:10:33.463Z,15.70
2022-09-28T16:13:23.030Z,15.60
2022-09-28T16:15:59.571Z,15.60
2022-09-28T16:18:32.319Z,15.60
2022-09-28T16:21:38.769Z,15.50
2022-09-28T16:24:08.477Z,15.50
2022-09-28T16:26:38.890Z,15.50
2022-09-28T16:29:35.724Z,15.40
2022-09-28T16:32:27.406Z,15.40
2022-09-28T16:35:15.555Z,15.40
2022-09-28T16:37:42.868Z,15.30
2022-09-28T16:40:13.683Z,15.30
2022-09-28T16:42:48.882Z,15.30
2022-09-28T16:45:25.862Z,15.30
2022-09-28T16:47:57.498Z,15.30
2022-09-28T16:50:25.856Z,15.20
2022-09-28T16:53:34.777Z,15.20
2022-09-28T16:56:07.504Z,15.20
2022-09-28T16:58:34.455Z,15.20
2022-09-28T17:01:01.990Z,15.10
2022-09-28T17:03:29.762Z,15.10
2022-09-28T17:05:57.131Z,15.10
2022-09-28T17:08:25.617Z,15.10
2022-09-28T17:11:24.071Z,15.00
2022-09-28T17:13:51.897Z,15.00
2022-09-28T17:16:37.261Z,15.00
2022-09-28T17:19:22.933Z,14.90
2022-09-28T17:21:52.085Z,14.90
2022-09-28T17:24:23.017Z,14.90
2022-09-28T17:26:51.974Z,14.90
2022-09-28T17:29:19.631Z,14.80
2022-09-28T17:31:47.939Z,14.80
2022-09-28T17:34:16.141Z,14.70
2022-09-28T17:36:44.883Z,14.70
2022-09-28T17:39:15.243Z,14.70
2022-09-28T17:41:45.853Z,14.60
2022-09-28T17:44:15.756Z,14.60
2022-09-28T17:46:48.820Z,14.60
2022-09-28T17:49:19.302Z,14.60
2022-09-28T17:51:46.299Z,14.60
2022-09-28T17:54:13.665Z,14.50
2022-09-28T17:56:42.297Z,14.50
2022-09-28T17:59:19.011Z,14.50
2022-09-28T18:01:48.074Z,14.40
2022-09-28T18:04:39.783Z,14.40
2022-09-28T18:07:04.251Z,14.30
2022-09-28T18:09:31.092Z,14.30
2022-09-28T18:12:05.196Z,14.20
2022-09-28T18:14:32.122Z,14.20
2022-09-28T18:16:59.091Z,14.10
2022-09-28T18:19:31.703Z,14.10
2022-09-28T18:21:59.361Z,14.00
2022-09-28T18:24:26.493Z,14.00
2022-09-28T18:26:53.328Z,14.00
2022-09-28T18:29:20.154Z,13.90
2022-09-28T18:31:48.991Z,13.90
2022-09-28T18:34:17.795Z,13.90
2022-09-28T18:36:44.984Z,13.90
2022-09-28T18:39:12.018Z,13.90
2022-09-28T18:41:38.986Z,13.90
2022-09-28T18:44:05.857Z,13.90
2022-09-28T18:46:35.864Z,13.90
2022-09-28T18:49:04.508Z,13.80
2022-09-28T18:51:34.423Z,13.80
2022-09-28T18:54:07.196Z,13.80
2022-09-28T18:56:37.230Z,13.80
2022-09-28T18:59:11.747Z,13.70
2022-09-28T19:01:41.486Z,13.70
2022-09-28T19:04:10.489Z,13.70
2022-09-28T19:06:44.905Z,13.70
2022-09-28T19:09:13.105Z,13.60
2022-09-28T19:11:42.679Z,13.60
2022-09-28T19:14:11.168Z,13.50
2022-09-28T19:16:38.084Z,13.50
2022-09-28T19:19:06.464Z,13.50
2022-09-28T19:21:33.501Z,13.50
2022-09-28T19:24:02.114Z,13.40
2022-09-28T19:26:30.035Z,13.40
2022-09-28T19:29:02.335Z,13.30
2022-09-28T19:31:30.773Z,13.30
2022-09-28T19:33:57.738Z,13.30
2022-09-28T19:36:28.405Z,13.30
2022-09-28T19:39:03.499Z,13.30
2022-09-28T19:41:43.058Z,13.20
2022-09-28T19:44:26.654Z,13.20
2022-09-28T19:46:58.739Z,13.20
2022-09-28T19:49:27.858Z,13.10
2022-09-28T19:54:59.260Z,13.10
2022-09-28T19:57:30.179Z,13.10
2022-09-28T20:00:02.842Z,13.00
2022-09-28T20:02:33.414Z,13.00
2022-09-28T20:05:02.910Z,13.00
2022-09-28T20:07:32.843Z,13.00
2022-09-28T20:09:59.875Z,12.90
2022-09-28T20:12:26.695Z,12.90
2022-09-28T20:14:54.217Z,12.90
2022-09-28T20:17:21.661Z,12.90
2022-09-28T20:19:51.612Z,12.90
2022-09-28T20:22:19.754Z,12.80
2022-09-28T20:24:46.721Z,12.80
2022-09-28T20:27:13.763Z,12.80
2022-09-28T20:29:42.874Z,12.80
2022-09-28T20:32:09.725Z,12.80
2022-09-28T20:34:36.583Z,12.70
2022-09-28T20:37:03.498Z,12.70
2022-09-28T20:39:30.371Z,12.70
2022-09-28T20:41:57.326Z,12.70
2022-09-28T20:44:24.217Z,12.60
2022-09-28T20:46:51.763Z,12.60
2022-09-28T20:49:18.617Z,12.60
2022-09-28T20:51:45.745Z,12.50
2022-09-28T20:54:12.666Z,12.50
2022-09-28T20:56:39.824Z,12.50
2022-09-28T20:59:12.963Z,12.40
2022-09-28T21:01:40.877Z,12.40
2022-09-28T21:04:09.759Z,12.40
2022-09-28T21:06:40.054Z,12.30
2022-09-28T21:09:09.598Z,12.30
2022-09-28T21:11:37.342Z,12.20
2022-09-28T21:14:08.385Z,12.20
2022-09-28T21:16:35.693Z,12.20
2022-09-28T21:19:03.388Z,12.10
2022-09-28T21:21:30.758Z,12.10
2022-09-28T21:23:58.799Z,12.00
2022-09-28T21:26:29.389Z,12.00
2022-09-28T21:28:59.559Z,11.90
2022-09-28T21:31:30.644Z,11.90
2022-09-28T21:33:58.663Z,11.80
2022-09-28T21:36:25.920Z,11.80
2022-09-28T21:38:56.004Z,11.80
2022-09-28T21:41:24.775Z,11.70
2022-09-28T21:43:52.213Z,11.70
2022-09-28T21:46:19.370Z,11.60
2022-09-28T21:48:46.358Z,11.60
2022-09-28T21:51:15.319Z,11.60
2022-09-28T21:53:42.695Z,11.50
2022-09-28T21:56:12.394Z,11.50
2022-09-28T21:58:52.387Z,11.40
2022-09-28T22:11:31.204Z,11.10
2022-09-28T22:14:00.282Z,11.10
2022-09-28T22:16:31.241Z,11.10
2022-09-28T22:18:59.803Z,11.10
2022-09-28T22:21:34.830Z,11.00
2022-09-28T22:24:05.755Z,11.00
2022-09-28T22:26:35.279Z,11.00
2022-09-28T22:29:08.764Z,10.90
2022-09-28T22:31:39.794Z,10.90
2022-09-28T22:34:08.423Z,10.90
2022-09-28T22:36:35.858Z,10.90
2022-09-28T22:39:03.094Z,10.90
2022-09-28T22:41:29.993Z,10.80
2022-09-28T22:43:59.703Z,10.80
2022-09-28T22:46:31.794Z,10.80
2022-09-28T22:48:59.722Z,10.80
2022-09-28T22:51:30.861Z,10.70
2022-09-28T22:53:58.476Z,10.80
2022-09-28T22:56:25.560Z,10.80
2022-09-28T22:58:52.451Z,10.70
2022-09-28T23:01:29.074Z,10.70
2022-09-28T23:03:57.961Z,10.70
2022-09-28T23:06:28.250Z,10.70
2022-09-28T23:08:55.185Z,10.70
2022-09-28T23:11:22.413Z,10.70
2022-09-28T23:13:56.163Z,10.70
2022-09-28T23:16:25.563Z,10.70
2022-09-28T23:18:55.293Z,10.70
2022-09-28T23:21:25.927Z,10.60
2022-09-28T23:23:56.671Z,10.70
2022-09-28T23:26:28.167Z,10.70
2022-09-28T23:28:56.001Z,10.80
2022-09-28T23:31:32.636Z,10.70
2022-09-28T23:34:01.329Z,10.70
2022-09-28T23:36:28.421Z,10.80
2022-09-28T23:38:57.136Z,10.80
2022-09-28T23:41:24.126Z,10.80
2022-09-28T23:43:51.268Z,10.80
2022-09-28T23:46:20.914Z,10.80
2022-09-28T23:48:49.035Z,10.80
2022-09-28T23:51:15.941Z,10.80
2022-09-28T23:53:43.279Z,10.80
2022-09-28T23:56:10.332Z,10.80
2022-09-28T23:58:37.203Z,10.80
